Etusivu
METAR-TAF:

METAR-TAF

Lentoasemat :

Moline, Illinois, Yhdysvallat

Leveyspiiri: 41-27-05N, Pituuspiiri: 090-30-53W, korkeus merenpinnasta: 179 m

Tämänhetkinen sää

Tämä raportti tehtiin 35 minuuttia sitten, kello 08.52 UTC
tyyntä
Lämpötila 17°C
Kosteus 94%
Ilmanpaine 1014 hPa
Näkyvyys: 16.1 km
selkeää

METAR: KMLI 130852Z AUTO 00000KT 10SM CLR 17/16 A2995 RMK AO2 SLP138 T01720156 56003 $

Aika: 04:27 (09:27 UTC)

Sääennuste

Tämä raportti tehtiin 4 tuntia ja 7 minuuttia sitten, kello 05.20 UTC
Ennuste voimassa 13. päivästä klo 06 UTC - 14. päivään klo 06 UTC
Tuuli 4 kn eri suunnista
Näkyvyys: 10 km
selkeää
From 13. päivästä klo 0900 UTC
Tuuli 4 kn eri suunnista
Näkyvyys: 4.8 km
selkeää
utua
From 13. päivästä klo 1300 UTC
Tuuli 6 kn etelästä
Näkyvyys: 10 km
selkeää

TAF: KMLI 130520Z 1306/1406 VRB04KT P6SM SKC FM130900 VRB04KT 3SM BR SKC FM131300 18006KT P6SM SKC

Säähavainnot ja -ennusteet yli 4000 lentoasemalta (METAR- ja TAF-raportit).

Käytössä olevat sääasemat on merkitty karttaan keltaisilla ja punaisilla pisteillä.

Aseta hiiri pisteen päälle nähdäksesi sääaseman nimen.

Klikkaa sitten nähdäksesi säähavainnot ja -ennusteet.

Kartan vaihtaminen: klikkaa mustalla rastilla varustettuja vihreitä pisteitä, niin voit zoomata sisään; viivalla varustettua vihreää pistettä, niin voit zoomata ulos tai vihreitä nuolia, niin pääset viereisille kartoille.


METAR-TAF: